Emerald Princess — ZCDP8 — position and weather

sailwx.info

Track history (hours):
 
Tides and Currents Weather Stations Pressure Air Temp Water Temp Dewpoint Dewpoint Depression Visibility Wind Speed Wind Dir Waves Ship Positions

Emerald Princess

Last reported at 2019-Jun-16 22:05 UTC. Time now 2019-Jun-18 21:07 UTC.
Position N 39°45' E 014°53'.

Type: Ship. MMSI: 310531000.

Date/timePositionNaut miles runAvg speedWind from/ knotsBaromVisibWave heightAir tempDewpointWater temp
2019-Jun-16 22:05N 39°45' E 014°53'511.7
2019-Jun-16 21:39N 39°50' E 014°50'211.7
2019-Jun-16 21:27N 39°52' E 014°49'511.8
2019-Jun-16 21:00N 39°57' E 014°46'611.8
2019-Jun-16 20:30N 40°03' E 014°43'611.5
2019-Jun-16 20:00N 40°08' E 014°42'811.9
2019-Jun-16 19:19N 40°17' E 014°43'612.0
2019-Jun-16 18:48N 40°23' E 014°43'412.0
2019-Jun-16 18:30N 40°26' E 014°43'612.0
2019-Jun-16 18:00N 40°32' E 014°43'611.8
2019-Jun-16 17:30N 40°38' E 014°43'3 0.2
2019-Jun-16 03:58N 40°37' E 014°39'612.5
2019-Jun-16 03:30N 40°35' E 014°32'816.4
2019-Jun-16 03:00N 40°32' E 014°22'1019.6
2019-Jun-16 02:30N 40°29' E 014°10'1019.8
2019-Jun-16 02:00N 40°27' E 013°57'917.8
2019-Jun-16 01:30N 40°28' E 013°46'917.4
2019-Jun-16 01:00N 40°30' E 013°34'917.6
2019-Jun-16 00:30N 40°32' E 013°23'917.4
2019-Jun-16 00:00N 40°34' E 013°12'918.4
2019-Jun-15 23:30N 40°37' E 013°01'918.3
2019-Jun-15 23:00N 40°39' E 012°49'1020.8
2019-Jun-15 22:31N 40°43' E 012°36'1121.3
2019-Jun-15 22:00N 40°52' E 012°29'1221.2
2019-Jun-15 21:26N 41°03' E 012°21'921.3
2019-Jun-15 21:01N 41°11' E 012°15'1121.5
2019-Jun-15 20:30N 41°20' E 012°08'1121.8
2019-Jun-15 20:00N 41°30' E 012°02'1121.6
2019-Jun-15 19:30N 41°39' E 011°55'74 3.6
2019-Jun-14 22:43N 42°04' E 010°21'4417.6
2019-Jun-14 20:15N 42°45' E 009°60'520.6
2019-Jun-14 20:01N 42°50' E 010°01'1121.1
2019-Jun-14 19:30N 43°00' E 010°03'1020.6
2019-Jun-14 19:01N 43°11' E 010°06'1019.4
2019-Jun-14 18:31N 43°20' E 010°08'816.6
2019-Jun-14 18:00N 43°28' E 010°10'611.7
2019-Jun-14 17:31N 43°32' E 010°16'2 3.2
2019-Jun-14 16:58N 43°33' E 010°18'0 0.0
2019-Jun-14 16:25N 43°33' E 010°18'0 0.0
2019-Jun-14 15:58N 43°33' E 010°18'0 0.0
2019-Jun-14 15:30N 43°33' E 010°18'0 0.0
2019-Jun-14 15:00N 43°33' E 010°18'0 0.0
2019-Jun-14 14:30N 43°33' E 010°18'0 0.0
2019-Jun-14 14:00N 43°33' E 010°18'0 0.0
2019-Jun-14 13:26N 43°33' E 010°18'0 0.0
2019-Jun-14 12:59N 43°33' E 010°18'0 0.0
2019-Jun-14 12:29N 43°33' E 010°18'0 0.0
2019-Jun-14 11:59N 43°33' E 010°18'0 0.0
2019-Jun-14 11:29N 43°33' E 010°18'0 0.0
2019-Jun-14 10:58N 43°33' E 010°18'0 0.0
2019-Jun-14 10:28N 43°33' E 010°18'0 0.0
2019-Jun-14 09:58N 43°33' E 010°18'0 0.0
2019-Jun-14 09:28N 43°33' E 010°18'0 0.0
2019-Jun-14 08:58N 43°33' E 010°18'0 0.0
2019-Jun-14 08:30N 43°33' E 010°18'0 0.0
2019-Jun-14 08:00N 43°33' E 010°18'0 0.0
2019-Jun-14 07:30N 43°33' E 010°18'0 0.0
2019-Jun-14 07:00N 43°33' E 010°18'0 0.0
2019-Jun-14 06:30N 43°33' E 010°18'0 0.0
2019-Jun-14 05:59N 43°33' E 010°18'0 0.0
2019-Jun-14 05:29N 43°33' E 010°18'0 0.0
2019-Jun-14 04:59N 43°33' E 010°18'0 0.1
2019-Jun-14 04:30N 43°33' E 010°18'2 3.9
2019-Jun-14 04:01N 43°32' E 010°16'4 8.8
2019-Jun-14 03:30N 43°28' E 010°12'612.2
2019-Jun-14 03:01N 43°24' E 010°06'815.3
2019-Jun-14 02:31N 43°20' E 009°57'917.1
2019-Jun-14 02:01N 43°20' E 009°45'816.8
2019-Jun-14 01:31N 43°21' E 009°34'611.9
2019-Jun-14 01:00N 43°26' E 009°28'611.6
2019-Jun-14 00:30N 43°31' E 009°26'611.6
2019-Jun-14 00:00N 43°36' E 009°22'611.3
2019-Jun-13 23:30N 43°41' E 009°18'511.0
2019-Jun-13 23:00N 43°46' E 009°14'611.1
2019-Jun-13 22:30N 43°51' E 009°11'612.8
2019-Jun-13 22:01N 43°57' E 009°07'612.6
2019-Jun-13 21:30N 44°02' E 009°03'612.7
2019-Jun-13 21:01N 44°08' E 008°60'612.9
2019-Jun-13 20:30N 44°14' E 008°59'612.2
2019-Jun-13 20:00N 44°21' E 008°58'4 7.6
2019-Jun-13 19:30N 44°24' E 008°55'1 1.3
2019-Jun-13 18:56N 44°25' E 008°55'0 0.0
2019-Jun-13 18:28N 44°25' E 008°55'0 0.0
2019-Jun-13 17:58N 44°25' E 008°55'0 0.0
2019-Jun-13 17:28N 44°25' E 008°55'0 0.0
2019-Jun-13 16:58N 44°25' E 008°55'0 0.0
2019-Jun-13 16:31N 44°25' E 008°55'0 0.0
2019-Jun-13 16:00N 44°25' E 008°55'0 0.0
2019-Jun-13 15:30N 44°25' E 008°55'0 0.0
2019-Jun-13 15:00N 44°25' E 008°55'0 0.0
2019-Jun-13 14:30N 44°25' E 008°55'0 0.0
2019-Jun-13 14:00N 44°25' E 008°55'0 0.0
2019-Jun-13 13:30N 44°25' E 008°55'0 0.0
2019-Jun-13 13:00N 44°25' E 008°55'0 0.0
2019-Jun-13 12:30N 44°25' E 008°55'0 0.0
2019-Jun-13 12:00N 44°25' E 008°55'0 0.0
2019-Jun-13 11:30N 44°25' E 008°55'0 0.0
2019-Jun-13 11:00N 44°25' E 008°55'0 0.0
2019-Jun-13 10:30N 44°25' E 008°55'0 0.0
2019-Jun-13 10:00N 44°25' E 008°55'0 0.0
2019-Jun-13 09:30N 44°25' E 008°55'0 0.0
2019-Jun-13 09:00N 44°25' E 008°55'0 0.0
2019-Jun-13 08:30N 44°25' E 008°55'0 0.0
2019-Jun-13 08:00N 44°25' E 008°55'0 0.0
2019-Jun-13 07:30N 44°25' E 008°55'0 0.0
2019-Jun-13 07:00N 44°25' E 008°55'0 0.0
2019-Jun-13 06:30N 44°25' E 008°55'0 0.0
2019-Jun-13 06:00N 44°25' E 008°55'0 0.0
2019-Jun-13 05:30N 44°25' E 008°55'0 0.0
2019-Jun-13 05:00N 44°25' E 008°55'0 0.6
2019-Jun-13 04:30N 44°24' E 008°55'1 1.8
2019-Jun-13 04:00N 44°24' E 008°56'4 7.2
2019-Jun-13 03:30N 44°21' E 008°59'510.0
2019-Jun-13 03:00N 44°16' E 008°59'918.0
2019-Jun-13 02:30N 44°09' E 008°51'1019.2
2019-Jun-13 02:00N 44°02' E 008°42'1019.1
2019-Jun-13 01:30N 43°54' E 008°33'1019.3
2019-Jun-13 01:00N 43°47' E 008°25'1019.3
2019-Jun-13 00:30N 43°41' E 008°14'1019.7
2019-Jun-13 00:00N 43°36' E 008°03'1019.9
2019-Jun-12 23:30N 43°31' E 007°51'1019.9
2019-Jun-12 23:00N 43°25' E 007°39'1019.7
2019-Jun-12 22:30N 43°20' E 007°28'1019.7
2019-Jun-12 22:00N 43°15' E 007°16'1019.4
2019-Jun-12 21:30N 43°10' E 007°05'1019.2
2019-Jun-12 21:00N 43°05' E 006°53'1018.8
2019-Jun-12 20:30N 43°00' E 006°42'918.5
2019-Jun-12 20:00N 42°55' E 006°33'1018.9
2019-Jun-12 19:29N 42°51' E 006°20'1218.5
2019-Jun-12 18:50N 42°53' E 006°04'4219.1
2019-Jun-12 16:40N 43°09' E 005°11'317.7
2019-Jun-12 16:30N 43°11' E 005°10'714.4
2019-Jun-12 16:00N 43°18' E 005°13'6 0.5
2019-Jun-12 05:11N 43°21' E 005°19'0 2.1
2019-Jun-12 05:00N 43°21' E 005°19'4 7.6
2019-Jun-12 04:30N 43°19' E 005°15'611.5
2019-Jun-12 04:00N 43°14' E 005°11'  
2019-Jun-09 20:28N 36°22' W 002°47'4817.3
2019-Jun-09 17:42N 36°37' W 001°51'27715.9
2019-Jun-09 00:18N 40°21' E 001°36'517.9
2019-Jun-09 00:00N 40°26' E 001°39'917.9
2019-Jun-08 23:30N 40°34' E 001°44'917.8
2019-Jun-08 23:00N 40°42' E 001°49'917.6
2019-Jun-08 22:29N 40°51' E 001°54'817.7
2019-Jun-08 22:00N 40°58' E 001°59'816.7
2019-Jun-08 21:30N 41°06' E 002°04'816.3
2019-Jun-08 21:01N 41°13' E 002°09'612.4
2019-Jun-08 20:30N 41°19' E 002°10'2 4.0
2019-Jun-08 20:01N 41°21' E 002°10'0 0.0
2019-Jun-08 19:30N 41°21' E 002°10'0 0.0
2019-Jun-08 19:00N 41°21' E 002°10'0 0.0
2019-Jun-08 18:30N 41°21' E 002°10'0 0.0
2019-Jun-08 17:54N 41°21' E 002°10'0 0.0
2019-Jun-08 17:29N 41°21' E 002°10'0 0.0
2019-Jun-08 16:47N 41°21' E 002°10'0 0.0
2019-Jun-08 16:14N 41°21' E 002°10'0 0.0
2019-Jun-08 15:32N 41°21' E 002°10'0 0.0
2019-Jun-08 14:43N 41°21' E 002°10'0 0.0
2019-Jun-08 14:28N 41°21' E 002°10'0 0.0
2019-Jun-08 13:58N 41°21' E 002°10'0 0.0
2019-Jun-08 13:28N 41°21' E 002°10'0 0.0
2019-Jun-08 13:00N 41°21' E 002°10'0 0.0
2019-Jun-08 12:30N 41°21' E 002°10'0 0.0
2019-Jun-08 11:57N 41°21' E 002°10'0 0.0
2019-Jun-08 11:27N 41°21' E 002°10'0 0.0
2019-Jun-08 10:57N 41°21' E 002°10'0 0.0
2019-Jun-08 10:29N 41°21' E 002°10'0 0.0
2019-Jun-08 09:59N 41°21' E 002°10'0 0.0
2019-Jun-08 09:29N 41°21' E 002°10'0 0.0
2019-Jun-08 08:56N 41°21' E 002°10'0 0.0
2019-Jun-08 08:28N 41°21' E 002°10'0 0.0
2019-Jun-08 07:55N 41°21' E 002°10'0 0.0
2019-Jun-08 07:28N 41°21' E 002°10'0 0.0
2019-Jun-08 06:58N 41°21' E 002°10'0 0.0
2019-Jun-08 06:28N 41°21' E 002°10'0 0.0
2019-Jun-08 06:00N 41°21' E 002°10'0 0.0
2019-Jun-08 05:27N 41°21' E 002°10'0 0.0
2019-Jun-08 04:57N 41°21' E 002°10'0 0.0
2019-Jun-08 04:30N 41°21' E 002°10'0 0.0
2019-Jun-08 03:56N 41°21' E 002°10'0 0.0
2019-Jun-08 03:29N 41°21' E 002°10'0 0.0
2019-Jun-08 03:00N 41°21' E 002°10'0 0.9
2019-Jun-08 02:30N 41°21' E 002°10'4 7.3
2019-Jun-08 02:00N 41°17' E 002°11'5 9.5
2019-Jun-08 01:30N 41°15' E 002°17'613.0
2019-Jun-08 01:00N 41°15' E 002°25'713.2
2019-Jun-08 00:30N 41°15' E 002°34'1613.3
2019-Jun-07 23:20N 41°15' E 002°55'20016.4
2019-Jun-07 11:08N 41°17' E 007°21'316.9
2019-Jun-07 10:56N 41°17' E 007°25'1017.0
2019-Jun-07 10:22N 41°17' E 007°38'5119.8
2019-Jun-07 07:49N 41°18' E 008°46'6617.6
2019-Jun-07 04:04N 41°11' E 010°13'9821.0
2019-Jun-06 23:23N 40°44' E 012°18'822.0
2019-Jun-06 23:00N 40°42' E 012°29'1121.9
2019-Jun-06 22:30N 40°39' E 012°43'  
Track history (hours):
 
Tides and Currents Weather Stations Pressure Air Temp Water Temp Dewpoint Dewpoint Depression Visibility Wind Speed Wind Dir Waves Ship Positions

Emerald Princess

Last reported at 2019-Jun-16 22:05 UTC. Time now 2019-Jun-18 21:07 UTC.
Position N 39°45' E 014°53'.

Type: Ship. MMSI: 310531000.

Date/timePositionNaut miles runAvg speedWind from/ knotsBaromVisibWave heightAir tempDewpointWater temp
2019-Jun-16 22:05N 39°45' E 014°53'511.7
2019-Jun-16 21:39N 39°50' E 014°50'211.7
2019-Jun-16 21:27N 39°52' E 014°49'511.8
2019-Jun-16 21:00N 39°57' E 014°46'611.8
2019-Jun-16 20:30N 40°03' E 014°43'611.5
2019-Jun-16 20:00N 40°08' E 014°42'811.9
2019-Jun-16 19:19N 40°17' E 014°43'612.0
2019-Jun-16 18:48N 40°23' E 014°43'412.0
2019-Jun-16 18:30N 40°26' E 014°43'612.0
2019-Jun-16 18:00N 40°32' E 014°43'611.8
2019-Jun-16 17:30N 40°38' E 014°43'3 0.2
2019-Jun-16 03:58N 40°37' E 014°39'612.5
2019-Jun-16 03:30N 40°35' E 014°32'816.4
2019-Jun-16 03:00N 40°32' E 014°22'1019.6
2019-Jun-16 02:30N 40°29' E 014°10'1019.8
2019-Jun-16 02:00N 40°27' E 013°57'917.8
2019-Jun-16 01:30N 40°28' E 013°46'917.4
2019-Jun-16 01:00N 40°30' E 013°34'917.6
2019-Jun-16 00:30N 40°32' E 013°23'917.4
2019-Jun-16 00:00N 40°34' E 013°12'918.4
2019-Jun-15 23:30N 40°37' E 013°01'918.3
2019-Jun-15 23:00N 40°39' E 012°49'1020.8
2019-Jun-15 22:31N 40°43' E 012°36'1121.3
2019-Jun-15 22:00N 40°52' E 012°29'1221.2
2019-Jun-15 21:26N 41°03' E 012°21'921.3
2019-Jun-15 21:01N 41°11' E 012°15'1121.5
2019-Jun-15 20:30N 41°20' E 012°08'1121.8
2019-Jun-15 20:00N 41°30' E 012°02'1121.6
2019-Jun-15 19:30N 41°39' E 011°55'74 3.6
2019-Jun-14 22:43N 42°04' E 010°21'4417.6
2019-Jun-14 20:15N 42°45' E 009°60'520.6
2019-Jun-14 20:01N 42°50' E 010°01'1121.1
2019-Jun-14 19:30N 43°00' E 010°03'1020.6
2019-Jun-14 19:01N 43°11' E 010°06'1019.4
2019-Jun-14 18:31N 43°20' E 010°08'816.6
2019-Jun-14 18:00N 43°28' E 010°10'611.7
2019-Jun-14 17:31N 43°32' E 010°16'2 3.2
2019-Jun-14 16:58N 43°33' E 010°18'0 0.0
2019-Jun-14 16:25N 43°33' E 010°18'0 0.0
2019-Jun-14 15:58N 43°33' E 010°18'0 0.0
2019-Jun-14 15:30N 43°33' E 010°18'0 0.0
2019-Jun-14 15:00N 43°33' E 010°18'0 0.0
2019-Jun-14 14:30N 43°33' E 010°18'0 0.0
2019-Jun-14 14:00N 43°33' E 010°18'0 0.0
2019-Jun-14 13:26N 43°33' E 010°18'0 0.0
2019-Jun-14 12:59N 43°33' E 010°18'0 0.0
2019-Jun-14 12:29N 43°33' E 010°18'0 0.0
2019-Jun-14 11:59N 43°33' E 010°18'0 0.0
2019-Jun-14 11:29N 43°33' E 010°18'0 0.0
2019-Jun-14 10:58N 43°33' E 010°18'0 0.0
2019-Jun-14 10:28N 43°33' E 010°18'0 0.0
2019-Jun-14 09:58N 43°33' E 010°18'0 0.0
2019-Jun-14 09:28N 43°33' E 010°18'0 0.0
2019-Jun-14 08:58N 43°33' E 010°18'0 0.0
2019-Jun-14 08:30N 43°33' E 010°18'0 0.0
2019-Jun-14 08:00N 43°33' E 010°18'0 0.0
2019-Jun-14 07:30N 43°33' E 010°18'0 0.0
2019-Jun-14 07:00N 43°33' E 010°18'0 0.0
2019-Jun-14 06:30N 43°33' E 010°18'0 0.0
2019-Jun-14 05:59N 43°33' E 010°18'0 0.0
2019-Jun-14 05:29N 43°33' E 010°18'0 0.0
2019-Jun-14 04:59N 43°33' E 010°18'0 0.1
2019-Jun-14 04:30N 43°33' E 010°18'2 3.9
2019-Jun-14 04:01N 43°32' E 010°16'4 8.8
2019-Jun-14 03:30N 43°28' E 010°12'612.2
2019-Jun-14 03:01N 43°24' E 010°06'815.3
2019-Jun-14 02:31N 43°20' E 009°57'917.1
2019-Jun-14 02:01N 43°20' E 009°45'816.8
2019-Jun-14 01:31N 43°21' E 009°34'611.9
2019-Jun-14 01:00N 43°26' E 009°28'611.6
2019-Jun-14 00:30N 43°31' E 009°26'611.6
2019-Jun-14 00:00N 43°36' E 009°22'611.3
2019-Jun-13 23:30N 43°41' E 009°18'511.0
2019-Jun-13 23:00N 43°46' E 009°14'611.1
2019-Jun-13 22:30N 43°51' E 009°11'612.8
2019-Jun-13 22:01N 43°57' E 009°07'612.6
2019-Jun-13 21:30N 44°02' E 009°03'612.7
2019-Jun-13 21:01N 44°08' E 008°60'612.9
2019-Jun-13 20:30N 44°14' E 008°59'612.2
2019-Jun-13 20:00N 44°21' E 008°58'4 7.6
2019-Jun-13 19:30N 44°24' E 008°55'1 1.3
2019-Jun-13 18:56N 44°25' E 008°55'0 0.0
2019-Jun-13 18:28N 44°25' E 008°55'0 0.0
2019-Jun-13 17:58N 44°25' E 008°55'0 0.0
2019-Jun-13 17:28N 44°25' E 008°55'0 0.0
2019-Jun-13 16:58N 44°25' E 008°55'0 0.0
2019-Jun-13 16:31N 44°25' E 008°55'0 0.0
2019-Jun-13 16:00N 44°25' E 008°55'0 0.0
2019-Jun-13 15:30N 44°25' E 008°55'0 0.0
2019-Jun-13 15:00N 44°25' E 008°55'0 0.0
2019-Jun-13 14:30N 44°25' E 008°55'0 0.0
2019-Jun-13 14:00N 44°25' E 008°55'0 0.0
2019-Jun-13 13:30N 44°25' E 008°55'0 0.0
2019-Jun-13 13:00N 44°25' E 008°55'0 0.0
2019-Jun-13 12:30N 44°25' E 008°55'0 0.0
2019-Jun-13 12:00N 44°25' E 008°55'0 0.0
2019-Jun-13 11:30N 44°25' E 008°55'0 0.0
2019-Jun-13 11:00N 44°25' E 008°55'0 0.0
2019-Jun-13 10:30N 44°25' E 008°55'0 0.0
2019-Jun-13 10:00N 44°25' E 008°55'0 0.0
2019-Jun-13 09:30N 44°25' E 008°55'0 0.0
2019-Jun-13 09:00N 44°25' E 008°55'0 0.0
2019-Jun-13 08:30N 44°25' E 008°55'0 0.0
2019-Jun-13 08:00N 44°25' E 008°55'0 0.0
2019-Jun-13 07:30N 44°25' E 008°55'0 0.0
2019-Jun-13 07:00N 44°25' E 008°55'0 0.0
2019-Jun-13 06:30N 44°25' E 008°55'0 0.0
2019-Jun-13 06:00N 44°25' E 008°55'0 0.0
2019-Jun-13 05:30N 44°25' E 008°55'0 0.0
2019-Jun-13 05:00N 44°25' E 008°55'0 0.6
2019-Jun-13 04:30N 44°24' E 008°55'1 1.8
2019-Jun-13 04:00N 44°24' E 008°56'4 7.2
2019-Jun-13 03:30N 44°21' E 008°59'510.0
2019-Jun-13 03:00N 44°16' E 008°59'918.0
2019-Jun-13 02:30N 44°09' E 008°51'1019.2
2019-Jun-13 02:00N 44°02' E 008°42'1019.1
2019-Jun-13 01:30N 43°54' E 008°33'1019.3
2019-Jun-13 01:00N 43°47' E 008°25'1019.3
2019-Jun-13 00:30N 43°41' E 008°14'1019.7
2019-Jun-13 00:00N 43°36' E 008°03'1019.9
2019-Jun-12 23:30N 43°31' E 007°51'1019.9
2019-Jun-12 23:00N 43°25' E 007°39'1019.7
2019-Jun-12 22:30N 43°20' E 007°28'1019.7
2019-Jun-12 22:00N 43°15' E 007°16'1019.4
2019-Jun-12 21:30N 43°10' E 007°05'1019.2
2019-Jun-12 21:00N 43°05' E 006°53'1018.8
2019-Jun-12 20:30N 43°00' E 006°42'918.5
2019-Jun-12 20:00N 42°55' E 006°33'1018.9
2019-Jun-12 19:29N 42°51' E 006°20'1218.5
2019-Jun-12 18:50N 42°53' E 006°04'4219.1
2019-Jun-12 16:40N 43°09' E 005°11'317.7
2019-Jun-12 16:30N 43°11' E 005°10'714.4
2019-Jun-12 16:00N 43°18' E 005°13'6 0.5
2019-Jun-12 05:11N 43°21' E 005°19'0 2.1
2019-Jun-12 05:00N 43°21' E 005°19'4 7.6
2019-Jun-12 04:30N 43°19' E 005°15'611.5
2019-Jun-12 04:00N 43°14' E 005°11'  
2019-Jun-09 20:28N 36°22' W 002°47'4817.3
2019-Jun-09 17:42N 36°37' W 001°51'27715.9
2019-Jun-09 00:18N 40°21' E 001°36'517.9
2019-Jun-09 00:00N 40°26' E 001°39'917.9
2019-Jun-08 23:30N 40°34' E 001°44'917.8
2019-Jun-08 23:00N 40°42' E 001°49'917.6
2019-Jun-08 22:29N 40°51' E 001°54'817.7
2019-Jun-08 22:00N 40°58' E 001°59'816.7
2019-Jun-08 21:30N 41°06' E 002°04'816.3
2019-Jun-08 21:01N 41°13' E 002°09'612.4
2019-Jun-08 20:30N 41°19' E 002°10'2 4.0
2019-Jun-08 20:01N 41°21' E 002°10'0 0.0
2019-Jun-08 19:30N 41°21' E 002°10'0 0.0
2019-Jun-08 19:00N 41°21' E 002°10'0 0.0
2019-Jun-08 18:30N 41°21' E 002°10'0 0.0
2019-Jun-08 17:54N 41°21' E 002°10'0 0.0
2019-Jun-08 17:29N 41°21' E 002°10'0 0.0
2019-Jun-08 16:47N 41°21' E 002°10'0 0.0
2019-Jun-08 16:14N 41°21' E 002°10'0 0.0
2019-Jun-08 15:32N 41°21' E 002°10'0 0.0
2019-Jun-08 14:43N 41°21' E 002°10'0 0.0
2019-Jun-08 14:28N 41°21' E 002°10'0 0.0
2019-Jun-08 13:58N 41°21' E 002°10'0 0.0
2019-Jun-08 13:28N 41°21' E 002°10'0 0.0
2019-Jun-08 13:00N 41°21' E 002°10'0 0.0
2019-Jun-08 12:30N 41°21' E 002°10'0 0.0
2019-Jun-08 11:57N 41°21' E 002°10'0 0.0
2019-Jun-08 11:27N 41°21' E 002°10'0 0.0
2019-Jun-08 10:57N 41°21' E 002°10'0 0.0
2019-Jun-08 10:29N 41°21' E 002°10'0 0.0
2019-Jun-08 09:59N 41°21' E 002°10'0 0.0
2019-Jun-08 09:29N 41°21' E 002°10'0 0.0
2019-Jun-08 08:56N 41°21' E 002°10'0 0.0
2019-Jun-08 08:28N 41°21' E 002°10'0 0.0
2019-Jun-08 07:55N 41°21' E 002°10'0 0.0
2019-Jun-08 07:28N 41°21' E 002°10'0 0.0
2019-Jun-08 06:58N 41°21' E 002°10'0 0.0
2019-Jun-08 06:28N 41°21' E 002°10'0 0.0
2019-Jun-08 06:00N 41°21' E 002°10'0 0.0
2019-Jun-08 05:27N 41°21' E 002°10'0 0.0
2019-Jun-08 04:57N 41°21' E 002°10'0 0.0
2019-Jun-08 04:30N 41°21' E 002°10'0 0.0
2019-Jun-08 03:56N 41°21' E 002°10'0 0.0
2019-Jun-08 03:29N 41°21' E 002°10'0 0.0
2019-Jun-08 03:00N 41°21' E 002°10'0 0.9
2019-Jun-08 02:30N 41°21' E 002°10'4 7.3
2019-Jun-08 02:00N 41°17' E 002°11'5 9.5
2019-Jun-08 01:30N 41°15' E 002°17'613.0
2019-Jun-08 01:00N 41°15' E 002°25'713.2
2019-Jun-08 00:30N 41°15' E 002°34'1613.3
2019-Jun-07 23:20N 41°15' E 002°55'20016.4
2019-Jun-07 11:08N 41°17' E 007°21'316.9
2019-Jun-07 10:56N 41°17' E 007°25'1017.0
2019-Jun-07 10:22N 41°17' E 007°38'5119.8
2019-Jun-07 07:49N 41°18' E 008°46'6617.6
2019-Jun-07 04:04N 41°11' E 010°13'9821.0
2019-Jun-06 23:23N 40°44' E 012°18'822.0
2019-Jun-06 23:00N 40°42' E 012°29'1121.9
2019-Jun-06 22:30N 40°39' E 012°43'  

Dump ship's entire track history